| time (UTC) | temp C | wind direction | speed KPH | gust KPH | rain 1hr cm | rain 24hr cm | rain mn cm | humidity % | barometer mb |
| 20260503193017 | 13 | 158 | 4.8 | 11.3 | 0.00 | 0.00 | 0.00 | 73 | 1013.9 |
| 20260503192517 | 13 | 180 | 4.8 | 11.3 | 0.00 | 0.00 | 0.00 | 75 | 1013.9 |
| 20260503192037 | 13 | 203 | 4.8 | 11.3 | 0.00 | 0.00 | 0.00 | 75 | 1013.8 |
| 20260503191517 | 13 | 203 | 4.8 | 9.7 | 0.00 | 0.00 | 0.00 | 74 | 1013.9 |
| 20260503191016 | 13 | 180 | 1.6 | 8.0 | 0.00 | 0.00 | 0.00 | 75 | 1013.9 |
| 20260503190516 | 13 | 203 | 3.2 | 6.4 | 0.00 | 0.00 | 0.00 | 77 | 1013.9 |
| 20260503190016 | 13 | 225 | 3.2 | 6.4 | 0.00 | 0.00 | 0.00 | 78 | 1014.0 |
| 20260503185517 | 13 | 158 | 1.6 | 8.0 | 0.00 | 0.00 | 0.00 | 81 | 1014.1 |
| 20260503185017 | 13 | 225 | 1.6 | 3.2 | 0.00 | 0.00 | 0.00 | 79 | 1014.0 |
| 20260503184516 | 13 | 203 | 1.6 | 6.4 | 0.00 | 0.00 | 0.00 | 81 | 1014.0 |
| 20260503184016 | 13 | 203 | 1.6 | 4.8 | 0.00 | 0.00 | 0.00 | 80 | 1014.0 |
| 20260503183536 | 13 | 203 | 3.2 | 6.4 | 0.00 | 0.00 | 0.00 | 80 | 1013.9 |
| 20260503183058 | 13 | 203 | 4.8 | 14.5 | 0.00 | 0.00 | 0.00 | 79 | 1014.0 |
| 20260503182517 | 13 | 158 | 4.8 | 9.7 | 0.00 | 0.00 | 0.00 | 77 | 1014.0 |
| 20260503182036 | 13 | 203 | 4.8 | 9.7 | 0.00 | 0.00 | 0.00 | 78 | 1013.9 |
| 20260503181516 | 13 | 158 | 6.4 | 14.5 | 0.00 | 0.00 | 0.00 | 78 | 1013.9 |
| 20260503181016 | 12 | 158 | 6.4 | 16.1 | 0.00 | 0.00 | 0.00 | 79 | 1013.8 |
| 20260503180638 | 12 | 158 | 4.8 | 9.7 | 0.00 | 0.00 | 0.00 | 81 | 1013.9 |
| 20260503180016 | 12 | 158 | 6.4 | 16.1 | 0.00 | 0.00 | 0.00 | 82 | 1013.8 |
| 20260503175516 | 11 | 203 | 6.4 | 19.3 | 0.00 | 0.00 | 0.00 | 85 | 1013.7 |
| 20260503175036 | 11 | 180 | 6.4 | 12.9 | 0.00 | 0.00 | 0.00 | 86 | 1013.7 |
| 20260503174516 | 11 | 180 | 3.2 | 6.4 | 0.00 | 0.00 | 0.00 | 91 | 1013.6 |
| 20260503174016 | 11 | 203 | 4.8 | 11.3 | 0.00 | 0.00 | 0.00 | 90 | 1013.7 |
| 20260503173516 | 11 | 158 | 4.8 | 11.3 | 0.00 | 0.00 | 0.00 | 90 | 1013.6 |
| 20260503173036 | 11 | 158 | 6.4 | 16.1 | 0.00 | 0.00 | 0.00 | 88 | 1013.5 |
| 20260503172517 | 11 | 158 | 6.4 | 17.7 | 0.00 | 0.00 | 0.00 | 88 | 1013.6 |
| 20260503172016 | 11 | 180 | 8.0 | 17.7 | 0.00 | 0.00 | 0.00 | 88 | 1013.3 |
| 20260503171516 | 11 | 158 | 6.4 | 16.1 | 0.00 | 0.00 | 0.00 | 89 | 1013.5 |
| 20260503171016 | 11 | 180 | 6.4 | 12.9 | 0.00 | 0.00 | 0.00 | 89 | 1013.6 |
| 20260503170516 | 11 | 180 | 6.4 | 12.9 | 0.00 | 0.00 | 0.00 | 86 | 1013.7 |
| 20260503150516 | 10 | 158 | 3.2 | 6.4 | 0.00 | 0.00 | 0.00 | 89 | 1013.0 |
| 20260503131016 | 10 | 158 | 3.2 | 6.4 | 0.00 | 0.00 | 0.00 | 90 | 1011.6 |
| 20260503130520 | 10 | 135 | 3.2 | 8.0 | 0.00 | 0.00 | 0.00 | 90 | 1011.5 |
| 20260503110516 | 10 | 180 | 1.6 | 4.8 | 0.00 | 0.00 | 0.00 | 90 | 1011.7 |
| 20260503081515 | 10 | 180 | 3.2 | 8.0 | 0.00 | 0.00 | 0.00 | 89 | 1012.2 |
| 20260503081015 | 10 | 180 | 3.2 | 6.4 | 0.00 | 0.00 | 0.00 | 90 | 1012.3 |
| 20260503080516 | 10 | 203 | 3.2 | 8.0 | 0.00 | 0.00 | 0.00 | 90 | 1012.4 |
| 20260503072515 | 10 | 158 | 3.2 | 6.4 | 0.00 | 0.00 | 0.00 | 90 | 1012.4 |
| 20260503072016 | 10 | 180 | 3.2 | 6.4 | 0.00 | 0.00 | 0.00 | 90 | 1012.4 |
| 20260503071516 | 10 | 180 | 3.2 | 8.0 | 0.00 | 0.00 | 0.00 | 89 | 1012.3 |
| 20260503071015 | 10 | 180 | 3.2 | 4.8 | 0.00 | 0.00 | 0.00 | 89 | 1012.3 |
| 20260503070515 | 10 | 180 | 1.6 | 4.8 | 0.00 | 0.00 | 0.00 | 89 | 1012.4 |
| 20260503055019 | 10 | 180 | 3.2 | 6.4 | 0.00 | 0.00 | 0.00 | 89 | 1012.7 |
| 20260503054517 | 10 | 180 | 3.2 | 8.0 | 0.00 | 0.00 | 0.00 | 89 | 1012.7 |
| 20260503054017 | 10 | 180 | 3.2 | 6.4 | 0.00 | 0.00 | 0.00 | 89 | 1012.8 |
| 20260503053518 | 10 | 180 | 3.2 | 6.4 | 0.00 | 0.00 | 0.00 | 89 | 1012.8 |
| 20260503053017 | 10 | 180 | 3.2 | 6.4 | 0.00 | 0.00 | 0.00 | 89 | 1012.8 |
| 20260503052637 | 10 | 180 | 3.2 | 6.4 | 0.00 | 0.00 | 0.00 | 89 | 1012.8 |
| 20260503052017 | 10 | 180 | 4.8 | 8.0 | 0.00 | 0.00 | 0.00 | 89 | 1012.8 |
| 20260503051517 | 10 | 180 | 3.2 | 6.4 | 0.00 | 0.00 | 0.00 | 89 | 1012.7 |
| 20260503051017 | 10 | 203 | 3.2 | 9.7 | 0.00 | 0.00 | 0.00 | 88 | 1012.8 |
| 20260503050517 | 10 | 180 | 3.2 | 9.7 | 0.00 | 0.00 | 0.00 | 88 | 1012.7 |
| 20260503050018 | 10 | 180 | 3.2 | 9.7 | 0.00 | 0.00 | 0.00 | 88 | 1012.7 |
| 20260503045517 | 10 | 180 | 3.2 | 8.0 | 0.00 | 0.00 | 0.00 | 88 | 1012.7 |
| 20260503045037 | 10 | 203 | 3.2 | 14.5 | 0.00 | 0.00 | 0.00 | 89 | 1012.7 |
| 20260503044537 | 10 | 180 | 3.2 | 8.0 | 0.00 | 0.00 | 0.00 | 89 | 1012.6 |
| 20260503044017 | 10 | 180 | 3.2 | 8.0 | 0.00 | 0.00 | 0.00 | 88 | 1012.7 |
| 20260503043517 | 10 | 158 | 3.2 | 8.0 | 0.00 | 0.00 | 0.00 | 89 | 1012.6 |
| 20260503043017 | 10 | 180 | 3.2 | 6.4 | 0.00 | 0.00 | 0.00 | 88 | 1012.6 |
| 20260503042602 | 10 | 180 | 3.2 | 6.4 | 0.00 | 0.00 | 0.00 | 88 | 1012.5 |
| 20260503042017 | 10 | 180 | 3.2 | 4.8 | 0.00 | 0.00 | 0.00 | 88 | 1012.5 |
| 20260503041517 | 10 | 203 | 3.2 | 6.4 | 0.00 | 0.00 | 0.00 | 88 | 1012.4 |
| 20260503041017 | 10 | 203 | 3.2 | 6.4 | 0.00 | 0.00 | 0.00 | 88 | 1012.4 |
| 20260503040517 | 10 | 180 | 3.2 | 8.0 | 0.00 | 0.00 | 0.00 | 88 | 1012.6 |
| 20260503040017 | 10 | 180 | 3.2 | 8.0 | 0.00 | 0.00 | 0.00 | 88 | 1012.4 |
| 20260503035517 | 10 | 180 | 3.2 | 8.0 | 0.00 | 0.00 | 0.00 | 88 | 1012.4 |
| 20260503035018 | 10 | 180 | 3.2 | 8.0 | 0.00 | 0.00 | 0.00 | 88 | 1012.4 |
| 20260503034517 | 10 | 180 | 3.2 | 8.0 | 0.00 | 0.00 | 0.00 | 88 | 1012.4 |
| 20260503034017 | 10 | 180 | 4.8 | 9.7 | 0.00 | 0.00 | 0.00 | 88 | 1012.4 |
| 20260503033517 | 10 | 180 | 3.2 | 8.0 | 0.00 | 0.00 | 0.00 | 88 | 1012.3 |
| 20260503033018 | 10 | 180 | 3.2 | 9.7 | 0.00 | 0.00 | 0.00 | 88 | 1012.2 |
| 20260503032517 | 10 | 180 | 3.2 | 9.7 | 0.00 | 0.00 | 0.00 | 88 | 1012.2 |
| 20260503032017 | 10 | 203 | 3.2 | 9.7 | 0.00 | 0.00 | 0.00 | 87 | 1012.2 |
| 20260503031517 | 10 | 180 | 3.2 | 6.4 | 0.00 | 0.00 | 0.00 | 87 | 1012.1 |
| 20260503031039 | 10 | 203 | 3.2 | 6.4 | 0.00 | 0.00 | 0.00 | 87 | 1012.0 |
| 20260503030518 | 10 | 180 | 1.6 | 6.4 | 0.00 | 0.00 | 0.00 | 87 | 1012.0 |
| 20260503030017 | 10 | 203 | 1.6 | 6.4 | 0.00 | 0.00 | 0.00 | 87 | 1011.8 |
| 20260503025517 | 10 | 158 | 1.6 | 6.4 | 0.00 | 0.00 | 0.00 | 86 | 1011.8 |
| 20260503025017 | 10 | 203 | 1.6 | 6.4 | 0.00 | 0.00 | 0.00 | 86 | 1011.8 |
| 20260503024522 | 10 | 180 | 1.6 | 9.7 | 0.00 | 0.00 | 0.00 | 86 | 1011.8 |
| 20260503024017 | 11 | 203 | 1.6 | 6.4 | 0.00 | 0.00 | 0.00 | 86 | 1011.9 |
| 20260503023517 | 11 | 180 | 3.2 | 11.3 | 0.00 | 0.00 | 0.00 | 85 | 1012.0 |
| 20260503023017 | 11 | 203 | 1.6 | 4.8 | 0.00 | 0.00 | 0.00 | 85 | 1011.9 |
| 20260503022517 | 11 | 225 | 1.6 | 4.8 | 0.00 | 0.00 | 0.00 | 85 | 1011.9 |
| 20260503022017 | 11 | 203 | 3.2 | 11.3 | 0.00 | 0.00 | 0.00 | 84 | 1011.9 |
| 20260503021517 | 11 | 203 | 1.6 | 8.0 | 0.00 | 0.00 | 0.00 | 84 | 1011.9 |
| 20260503021017 | 11 | 203 | 1.6 | 8.0 | 0.00 | 0.00 | 0.00 | 84 | 1012.0 |
| 20260503020517 | 11 | 180 | 1.6 | 3.2 | 0.00 | 0.00 | 0.00 | 83 | 1012.0 |
| 20260503020022 | 11 | 248 | 1.6 | 4.8 | 0.00 | 0.00 | 0.00 | 83 | 1011.9 |
| 20260503015517 | 11 | 203 | 1.6 | 6.4 | 0.00 | 0.00 | 0.00 | 83 | 1011.9 |
| 20260503015017 | 11 | 180 | 3.2 | 8.0 | 0.00 | 0.00 | 0.00 | 82 | 1012.0 |
| 20260503014517 | 11 | 203 | 3.2 | 14.5 | 0.00 | 0.00 | 0.00 | 81 | 1012.1 |
| 20260503014017 | 11 | 180 | 1.6 | 4.8 | 0.00 | 0.00 | 0.00 | 81 | 1012.1 |
| 20260503013517 | 11 | 203 | 1.6 | 4.8 | 0.00 | 0.00 | 0.00 | 81 | 1012.0 |
| 20260503013018 | 12 | 203 | 1.6 | 4.8 | 0.00 | 0.00 | 0.00 | 81 | 1012.1 |
| 20260503012517 | 12 | 203 | 3.2 | 6.4 | 0.00 | 0.00 | 0.00 | 80 | 1012.3 |
| 20260503012017 | 12 | 203 | 1.6 | 6.4 | 0.00 | 0.00 | 0.00 | 80 | 1012.3 |
| 20260503011517 | 12 | 180 | 1.6 | 3.2 | 0.00 | 0.00 | 0.00 | 80 | 1012.2 |
| 20260503011037 | 12 | 203 | 3.2 | 6.4 | 0.00 | 0.00 | 0.00 | 79 | 1012.3 |
| 20260503010517 | 12 | 158 | 3.2 | 8.0 | 0.00 | 0.00 | 0.00 | 78 | 1012.3 |
| 20260503010017 | 12 | 203 | 3.2 | 6.4 | 0.00 | 0.00 | 0.00 | 79 | 1012.3 |
| 20260503005517 | 12 | 203 | 3.2 | 6.4 | 0.00 | 0.00 | 0.00 | 79 | 1012.3 |
| 20260503005017 | 12 | 225 | 3.2 | 8.0 | 0.00 | 0.00 | 0.00 | 79 | 1012.2 |
| 20260503004658 | 12 | 180 | 3.2 | 9.7 | 0.00 | 0.00 | 0.00 | 78 | 1012.3 |
| 20260503004017 | 12 | 203 | 4.8 | 9.7 | 0.00 | 0.00 | 0.00 | 78 | 1012.3 |
| 20260503003537 | 12 | 203 | 3.2 | 9.7 | 0.00 | 0.00 | 0.00 | 78 | 1012.4 |
| 20260503003016 | 12 | 225 | 3.2 | 8.0 | 0.00 | 0.00 | 0.00 | 78 | 1012.4 |
| 20260503002517 | 12 | 180 | 4.8 | 8.0 | 0.00 | 0.00 | 0.00 | 77 | 1012.3 |
| 20260503002016 | 13 | 203 | 3.2 | 8.0 | 0.00 | 0.00 | 0.00 | 77 | 1012.5 |
| 20260503001537 | 13 | 203 | 4.8 | 8.0 | 0.00 | 0.00 | 0.00 | 76 | 1012.5 |
| 20260503001016 | 13 | 203 | 3.2 | 9.7 | 0.00 | 0.00 | 0.00 | 76 | 1012.4 |
| 20260503000517 | 13 | 203 | 3.2 | 6.4 | 0.00 | 0.00 | 0.00 | 77 | 1012.4 |
| 20260503000017 | 13 | 203 | 4.8 | 8.0 | 0.00 | 0.00 | 0.00 | 76 | 1012.5 |
| 20260502235516 | 13 | 180 | 4.8 | 9.7 | 0.00 | 0.00 | 0.00 | 75 | 1012.5 |
| 20260502235037 | 14 | 203 | 4.8 | 11.3 | 0.00 | 0.00 | 0.00 | 74 | 1012.6 |
| 20260502234518 | 14 | 203 | 4.8 | 9.7 | 0.00 | 0.00 | 0.00 | 73 | 1012.6 |
| 20260502234037 | 13 | 180 | 3.2 | 8.0 | 0.00 | 0.00 | 0.00 | 75 | 1012.6 |
| 20260502233516 | 13 | 203 | 3.2 | 9.7 | 0.00 | 0.00 | 0.00 | 75 | 1012.6 |
| 20260502233017 | 13 | 203 | 3.2 | 6.4 | 0.00 | 0.00 | 0.00 | 75 | 1012.7 |
| 20260502232517 | 13 | 203 | 3.2 | 8.0 | 0.00 | 0.00 | 0.00 | 76 | 1012.8 |
| 20260502232017 | 13 | 203 | 4.8 | 9.7 | 0.00 | 0.00 | 0.00 | 75 | 1012.8 |
| 20260502231517 | 13 | 203 | 3.2 | 8.0 | 0.00 | 0.00 | 0.00 | 76 | 1012.8 |
| 20260502231016 | 13 | 203 | 3.2 | 12.9 | 0.00 | 0.00 | 0.00 | 78 | 1012.8 |
| 20260502230517 | 13 | 203 | 6.4 | 11.3 | 0.00 | 0.00 | 0.00 | 76 | 1012.8 |
| 20260502230017 | 13 | 158 | 4.8 | 9.7 | 0.00 | 0.00 | 0.00 | 76 | 1013.1 |
| 20260502225517 | 13 | 180 | 4.8 | 9.7 | 0.00 | 0.00 | 0.00 | 75 | 1013.1 |
| 20260502225017 | 14 | 203 | 3.2 | 9.7 | 0.00 | 0.00 | 0.00 | 75 | 1013.1 |
| 20260502224516 | 13 | 203 | 4.8 | 11.3 | 0.00 | 0.00 | 0.00 | 75 | 1013.1 |
| 20260502224017 | 13 | 203 | 4.8 | 9.7 | 0.00 | 0.00 | 0.00 | 77 | 1013.3 |
| 20260502223516 | 13 | 180 | 4.8 | 12.9 | 0.00 | 0.00 | 0.00 | 76 | 1013.4 |
| 20260502223016 | 13 | 180 | 4.8 | 11.3 | 0.00 | 0.00 | 0.00 | 77 | 1013.4 |
| 20260502222517 | 13 | 180 | 6.4 | 14.5 | 0.00 | 0.00 | 0.00 | 78 | 1013.5 |
| 20260502222057 | 13 | 180 | 4.8 | 11.3 | 0.00 | 0.00 | 0.00 | 76 | 1013.5 |
| 20260502221521 | 13 | 180 | 3.2 | 8.0 | 0.00 | 0.00 | 0.00 | 76 | 1013.6 |
| 20260502221017 | 13 | 180 | 4.8 | 8.0 | 0.00 | 0.00 | 0.00 | 75 | 1013.7 |
| 20260502220517 | 13 | 180 | 4.8 | 11.3 | 0.00 | 0.00 | 0.00 | 76 | 1013.6 |
| 20260502220016 | 13 | 158 | 6.4 | 9.7 | 0.00 | 0.00 | 0.00 | 77 | 1013.7 |
| 20260502215516 | 13 | 203 | 4.8 | 11.3 | 0.00 | 0.00 | 0.00 | 77 | 1013.7 |
| 20260502215016 | 13 | 158 | 8.0 | 12.9 | 0.00 | 0.00 | 0.00 | 77 | 1013.7 |
| 20260502214517 | 12 | 180 | 6.4 | 11.3 | 0.00 | 0.00 | 0.00 | 78 | 1013.7 |
| 20260502214016 | 12 | 203 | 6.4 | 14.5 | 0.00 | 0.00 | 0.00 | 77 | 1013.7 |
| 20260502213516 | 12 | 180 | 4.8 | 11.3 | 0.00 | 0.00 | 0.00 | 79 | 1013.7 |
| 20260502213016 | 12 | 203 | 4.8 | 9.7 | 0.00 | 0.00 | 0.00 | 79 | 1013.8 |
| 20260502212517 | 12 | 203 | 6.4 | 16.1 | 0.00 | 0.00 | 0.00 | 80 | 1013.8 |
| 20260502212017 | 12 | 203 | 4.8 | 11.3 | 0.00 | 0.00 | 0.00 | 81 | 1013.8 |
| 20260502211537 | 12 | 203 | 4.8 | 9.7 | 0.00 | 0.00 | 0.00 | 81 | 1013.9 |
| 20260502211021 | 12 | 180 | 4.8 | 14.5 | 0.00 | 0.00 | 0.00 | 82 | 1013.9 |
| 20260502210516 | 12 | 203 | 6.4 | 12.9 | 0.00 | 0.00 | 0.00 | 81 | 1014.0 |
| 20260502210016 | 12 | 180 | 4.8 | 11.3 | 0.00 | 0.00 | 0.00 | 82 | 1014.2 |
| 20260502205516 | 12 | 180 | 6.4 | 12.9 | 0.00 | 0.00 | 0.00 | 82 | 1014.2 |
| 20260502205021 | 12 | 180 | 3.2 | 8.0 | 0.00 | 0.00 | 0.00 | 82 | 1014.1 |
| 20260502204516 | 12 | 180 | 4.8 | 11.3 | 0.00 | 0.00 | 0.00 | 83 | 1014.2 |
| 20260502204016 | 12 | 158 | 6.4 | 16.1 | 0.00 | 0.00 | 0.00 | 84 | 1014.2 |
| 20260502203516 | 11 | 158 | 6.4 | 17.7 | 0.00 | 0.00 | 0.00 | 85 | 1014.2 |
| 20260502203017 | 11 | 158 | 6.4 | 14.5 | 0.00 | 0.00 | 0.00 | 84 | 1014.3 |
| 20260502202516 | 11 | 158 | 6.4 | 16.1 | 0.00 | 0.00 | 0.00 | 86 | 1014.4 |
| 20260502202016 | 11 | 158 | 6.4 | 12.9 | 0.00 | 0.00 | 0.00 | 87 | 1014.5 |
| 20260502201516 | 11 | 158 | 8.0 | 14.5 | 0.00 | 0.00 | 0.00 | 86 | 1014.5 |
| 20260502201017 | 11 | 158 | 8.0 | 17.7 | 0.00 | 0.00 | 0.00 | 86 | 1014.5 |
| 20260502200516 | 11 | 180 | 8.0 | 16.1 | 0.00 | 0.00 | 0.00 | 87 | 1014.6 |
| 20260502200016 | 11 | 180 | 8.0 | 16.1 | 0.00 | 0.00 | 0.00 | 87 | 1014.6 |
| 20260502195516 | 11 | 158 | 8.0 | 16.1 | 0.00 | 0.00 | 0.00 | 87 | 1014.6 |
| 20260502195016 | 11 | 158 | 8.0 | 17.7 | 0.00 | 0.00 | 0.00 | 87 | 1014.6 |
| 20260502194537 | 11 | 203 | 4.8 | 12.9 | 0.00 | 0.00 | 0.00 | 87 | 1014.5 |
| 20260502194016 | 11 | 203 | 4.8 | 12.9 | 0.00 | 0.00 | 0.00 | 87 | 1014.7 |
| 20260502193516 | 11 | 158 | 6.4 | 11.3 | 0.00 | 0.00 | 0.00 | 88 | 1014.6 |